sensor_id;sensor_type;location;lat;lon;timestamp;pressure;altitude;pressure_sealevel;temperature;humidity
9110;BME280;4590;51.462;6.692;2023-12-20T00:02:07;101256.22;;;9.47;81.34
9110;BME280;4590;51.462;6.692;2023-12-20T00:04:33;101258.13;;;9.46;81.23
9110;BME280;4590;51.462;6.692;2023-12-20T00:06:58;101264.22;;;9.43;80.78
9110;BME280;4590;51.462;6.692;2023-12-20T00:09:23;101265.06;;;9.39;80.82
9110;BME280;4590;51.462;6.692;2023-12-20T00:11:49;101285.16;;;9.34;80.45
9110;BME280;4590;51.462;6.692;2023-12-20T00:14:14;101285.47;;;9.28;81.06
9110;BME280;4590;51.462;6.692;2023-12-20T00:16:39;101272.03;;;9.26;80.77
9110;BME280;4590;51.462;6.692;2023-12-20T00:19:04;101277.81;;;9.25;80.61
9110;BME280;4590;51.462;6.692;2023-12-20T00:21:30;101274.78;;;9.21;80.43
9110;BME280;4590;51.462;6.692;2023-12-20T00:23:55;101276.47;;;9.17;80.28
9110;BME280;4590;51.462;6.692;2023-12-20T00:26:20;101280.88;;;9.13;80.68
9110;BME280;4590;51.462;6.692;2023-12-20T00:28:46;101290.25;;;9.12;80.18
9110;BME280;4590;51.462;6.692;2023-12-20T00:31:11;101298.47;;;9.12;80.38
9110;BME280;4590;51.462;6.692;2023-12-20T00:33:36;101292.44;;;9.10;80.50
9110;BME280;4590;51.462;6.692;2023-12-20T00:36:02;101294.38;;;9.09;80.53
9110;BME280;4590;51.462;6.692;2023-12-20T00:38:27;101288.06;;;9.09;80.36
9110;BME280;4590;51.462;6.692;2023-12-20T00:40:52;101294.09;;;9.06;80.26
9110;BME280;4590;51.462;6.692;2023-12-20T00:43:17;101300.97;;;9.03;80.31
9110;BME280;4590;51.462;6.692;2023-12-20T00:45:43;101298.50;;;9.02;80.26
9110;BME280;4590;51.462;6.692;2023-12-20T00:48:08;101298.78;;;9.00;80.19
9110;BME280;4590;51.462;6.692;2023-12-20T00:50:33;101311.19;;;8.93;80.34
9110;BME280;4590;51.462;6.692;2023-12-20T00:52:58;101300.22;;;8.93;80.35
9110;BME280;4590;51.462;6.692;2023-12-20T00:55:24;101293.63;;;8.94;80.35
9110;BME280;4590;51.462;6.692;2023-12-20T00:57:49;101297.47;;;8.93;80.04
9110;BME280;4590;51.462;6.692;2023-12-20T01:00:15;101302.41;;;8.91;80.27
9110;BME280;4590;51.462;6.692;2023-12-20T01:02:40;101307.34;;;8.89;80.09
9110;BME280;4590;51.462;6.692;2023-12-20T01:05:06;101312.31;;;8.82;80.61
9110;BME280;4590;51.462;6.692;2023-12-20T01:07:32;101306.25;;;8.90;80.27
9110;BME280;4590;51.462;6.692;2023-12-20T01:09:57;101307.09;;;8.90;80.03
9110;BME280;4590;51.462;6.692;2023-12-20T01:12:23;101304.34;;;8.90;80.06
9110;BME280;4590;51.462;6.692;2023-12-20T01:14:48;101314.50;;;8.90;80.36
9110;BME280;4590;51.462;6.692;2023-12-20T01:17:13;101302.13;;;8.92;79.90
9110;BME280;4590;51.462;6.692;2023-12-20T01:19:39;101310.09;;;8.89;79.99
9110;BME280;4590;51.462;6.692;2023-12-20T01:22:04;101310.94;;;8.89;79.89
9110;BME280;4590;51.462;6.692;2023-12-20T01:24:30;101308.19;;;8.84;80.37
9110;BME280;4590;51.462;6.692;2023-12-20T01:26:55;101310.38;;;8.87;79.84
9110;BME280;4590;51.462;6.692;2023-12-20T01:29:20;101308.75;;;8.86;79.80
9110;BME280;4590;51.462;6.692;2023-12-20T01:31:45;101320.00;;;8.85;79.24
9110;BME280;4590;51.462;6.692;2023-12-20T01:34:11;101325.00;;;8.72;79.46
9110;BME280;4590;51.462;6.692;2023-12-20T01:36:36;101322.78;;;8.79;79.29
9110;BME280;4590;51.462;6.692;2023-12-20T01:39:01;101324.16;;;8.77;79.06
9110;BME280;4590;51.462;6.692;2023-12-20T01:41:26;101324.97;;;8.77;79.26
9110;BME280;4590;51.462;6.692;2023-12-20T01:43:52;101319.50;;;8.72;78.78
9110;BME280;4590;51.462;6.692;2023-12-20T01:46:19;101328.81;;;8.71;78.85
9110;BME280;4590;51.462;6.692;2023-12-20T01:48:45;101313.75;;;8.69;78.68
9110;BME280;4590;51.462;6.692;2023-12-20T01:51:10;101312.38;;;8.66;78.92
9110;BME280;4590;51.462;6.692;2023-12-20T01:53:36;101314.59;;;8.64;78.61
9110;BME280;4590;51.462;6.692;2023-12-20T01:56:02;101323.38;;;8.61;78.98
9110;BME280;4590;51.462;6.692;2023-12-20T01:58:27;101328.31;;;8.59;78.76
9110;BME280;4590;51.462;6.692;2023-12-20T02:00:53;101333.25;;;8.52;78.78
9110;BME280;4590;51.462;6.692;2023-12-20T02:03:19;101329.47;;;8.48;78.63
9110;BME280;4590;51.462;6.692;2023-12-20T02:05:44;101329.19;;;8.44;78.54
9110;BME280;4590;51.462;6.692;2023-12-20T02:08:10;101316.84;;;8.42;78.95
9110;BME280;4590;51.462;6.692;2023-12-20T02:10:35;101318.22;;;8.39;78.49
9110;BME280;4590;51.462;6.692;2023-12-20T02:13:01;101316.56;;;8.38;78.79
9110;BME280;4590;51.462;6.692;2023-12-20T02:15:26;101323.69;;;8.34;78.51
9110;BME280;4590;51.462;6.692;2023-12-20T02:17:52;101325.66;;;8.34;78.99
9110;BME280;4590;51.462;6.692;2023-12-20T02:20:17;101324.00;;;8.33;78.60
9110;BME280;4590;51.462;6.692;2023-12-20T02:22:43;101327.53;;;8.28;78.35
9110;BME280;4590;51.462;6.692;2023-12-20T02:25:08;101325.06;;;8.27;78.64
9110;BME280;4590;51.462;6.692;2023-12-20T02:27:34;101328.38;;;8.24;78.64
9110;BME280;4590;51.462;6.692;2023-12-20T02:30:00;101330.56;;;8.22;78.51
9110;BME280;4590;51.462;6.692;2023-12-20T02:32:25;101319.03;;;8.20;78.61
9110;BME280;4590;51.462;6.692;2023-12-20T02:34:54;101327.03;;;8.16;78.22
9110;BME280;4590;51.462;6.692;2023-12-20T02:37:20;101328.38;;;8.14;78.59
9110;BME280;4590;51.462;6.692;2023-12-20T02:39:45;101331.94;;;8.09;78.46
9110;BME280;4590;51.462;6.692;2023-12-20T02:42:10;101333.59;;;8.05;78.16
9110;BME280;4590;51.462;6.692;2023-12-20T02:44:35;101336.06;;;8.01;78.68
9110;BME280;4590;51.462;6.692;2023-12-20T02:47:01;101327.31;;;7.99;78.56
9110;BME280;4590;51.462;6.692;2023-12-20T02:49:27;101328.66;;;7.97;78.29
9110;BME280;4590;51.462;6.692;2023-12-20T02:51:52;101331.13;;;7.93;78.50
9110;BME280;4590;51.462;6.692;2023-12-20T02:54:17;101328.94;;;7.90;78.20
9110;BME280;4590;51.462;6.692;2023-12-20T02:56:42;101338.50;;;7.88;78.30
9110;BME280;4590;51.462;6.692;2023-12-20T02:59:08;101331.69;;;7.85;78.58
9110;BME280;4590;51.462;6.692;2023-12-20T03:01:34;101330.59;;;7.81;78.39
9110;BME280;4590;51.462;6.692;2023-12-20T03:04:00;101334.69;;;7.79;78.21
9110;BME280;4590;51.462;6.692;2023-12-20T03:06:25;101331.13;;;7.78;78.61
9110;BME280;4590;51.462;6.692;2023-12-20T03:08:50;101328.38;;;7.78;78.64
9110;BME280;4590;51.462;6.692;2023-12-20T03:11:15;101325.91;;;7.77;78.60
9110;BME280;4590;51.462;6.692;2023-12-20T03:13:41;101329.75;;;7.75;78.54
9110;BME280;4590;51.462;6.692;2023-12-20T03:16:10;101326.75;;;7.77;78.68
9110;BME280;4590;51.462;6.692;2023-12-20T03:18:35;101324.00;;;7.77;78.44
9110;BME280;4590;51.462;6.692;2023-12-20T03:21:01;101327.00;;;7.75;78.58
9110;BME280;4590;51.462;6.692;2023-12-20T03:23:26;101330.56;;;7.76;78.48
9110;BME280;4590;51.462;6.692;2023-12-20T03:25:52;101330.31;;;7.78;78.94
9110;BME280;4590;51.462;6.692;2023-12-20T03:28:17;101328.94;;;7.80;78.59
9110;BME280;4590;51.462;6.692;2023-12-20T03:30:43;101317.72;;;7.82;78.55
9110;BME280;4590;51.462;6.692;2023-12-20T03:33:08;101303.47;;;7.80;78.67
9110;BME280;4590;51.462;6.692;2023-12-20T03:35:34;101320.72;;;7.80;78.37
9110;BME280;4590;51.462;6.692;2023-12-20T03:37:59;101318.25;;;7.79;78.80
9110;BME280;4590;51.462;6.692;2023-12-20T03:40:26;101314.13;;;7.76;78.41
9110;BME280;4590;51.462;6.692;2023-12-20T03:42:51;101312.50;;;7.75;78.45
9110;BME280;4590;51.462;6.692;2023-12-20T03:45:17;101304.00;;;7.71;78.59
9110;BME280;4590;51.462;6.692;2023-12-20T03:47:42;101300.19;;;7.67;78.44
9110;BME280;4590;51.462;6.692;2023-12-20T03:50:07;101310.31;;;7.67;78.34
9110;BME280;4590;51.462;6.692;2023-12-20T03:52:33;101307.56;;;7.67;78.17
9110;BME280;4590;51.462;6.692;2023-12-20T03:54:58;101311.13;;;7.62;78.71
9110;BME280;4590;51.462;6.692;2023-12-20T03:57:23;101308.13;;;7.64;78.10
9110;BME280;4590;51.462;6.692;2023-12-20T03:59:48;101303.72;;;7.63;78.25
9110;BME280;4590;51.462;6.692;2023-12-20T04:02:14;101303.19;;;7.61;78.33
9110;BME280;4590;51.462;6.692;2023-12-20T04:04:39;101299.34;;;7.57;78.51
9110;BME280;4590;51.462;6.692;2023-12-20T04:07:04;101305.38;;;7.54;78.16
9110;BME280;4590;51.462;6.692;2023-12-20T04:09:29;101287.31;;;7.53;77.99
9110;BME280;4590;51.462;6.692;2023-12-20T04:11:55;101291.97;;;7.52;78.04
9110;BME280;4590;51.462;6.692;2023-12-20T04:14:20;101299.34;;;7.52;77.87
9110;BME280;4590;51.462;6.692;2023-12-20T04:16:45;101301.81;;;7.48;78.67
9110;BME280;4590;51.462;6.692;2023-12-20T04:19:11;101303.72;;;7.48;78.35
9110;BME280;4590;51.462;6.692;2023-12-20T04:21:36;101305.63;;;7.47;78.49
9110;BME280;4590;51.462;6.692;2023-12-20T04:24:01;101301.25;;;7.46;78.49
9110;BME280;4590;51.462;6.692;2023-12-20T04:26:27;101298.25;;;7.48;78.16
9110;BME280;4590;51.462;6.692;2023-12-20T04:28:52;101317.69;;;7.46;78.31
9110;BME280;4590;51.462;6.692;2023-12-20T04:31:17;101312.75;;;7.48;78.13
9110;BME280;4590;51.462;6.692;2023-12-20T04:33:42;101315.22;;;7.50;78.51
9110;BME280;4590;51.462;6.692;2023-12-20T04:36:08;101322.06;;;7.52;78.47
9110;BME280;4590;51.462;6.692;2023-12-20T04:38:34;101324.00;;;7.52;78.35
9110;BME280;4590;51.462;6.692;2023-12-20T04:40:59;101322.34;;;7.51;78.58
9110;BME280;4590;51.462;6.692;2023-12-20T04:43:24;101315.50;;;7.53;78.68
9110;BME280;4590;51.462;6.692;2023-12-20T04:45:50;101316.03;;;7.50;78.86
9110;BME280;4590;51.462;6.692;2023-12-20T04:48:16;101317.44;;;7.53;78.34
9110;BME280;4590;51.462;6.692;2023-12-20T04:50:41;101318.53;;;7.52;78.39
9110;BME280;4590;51.462;6.692;2023-12-20T04:53:07;101319.06;;;7.49;78.23
9110;BME280;4590;51.462;6.692;2023-12-20T04:55:32;101317.41;;;7.48;78.35
9110;BME280;4590;51.462;6.692;2023-12-20T04:57:57;101319.31;;;7.42;78.17
9110;BME280;4590;51.462;6.692;2023-12-20T05:00:23;101316.00;;;7.40;78.44
9110;BME280;4590;51.462;6.692;2023-12-20T05:02:48;101311.94;;;7.37;78.09
9110;BME280;4590;51.462;6.692;2023-12-20T05:05:13;101315.19;;;7.34;78.30
9110;BME280;4590;51.462;6.692;2023-12-20T05:07:40;101323.16;;;7.36;78.13
9110;BME280;4590;51.462;6.692;2023-12-20T05:10:06;101305.88;;;7.30;78.10
9110;BME280;4590;51.462;6.692;2023-12-20T05:12:33;101318.19;;;7.28;78.50
9110;BME280;4590;51.462;6.692;2023-12-20T05:14:58;101307.50;;;7.26;78.06
9110;BME280;4590;51.462;6.692;2023-12-20T05:17:23;101317.91;;;7.24;78.30
9110;BME280;4590;51.462;6.692;2023-12-20T05:19:48;101314.06;;;7.25;78.27
9110;BME280;4590;51.462;6.692;2023-12-20T05:22:14;101314.06;;;7.25;77.95
9110;BME280;4590;51.462;6.692;2023-12-20T05:24:39;101312.97;;;7.26;78.77
9110;BME280;4590;51.462;6.692;2023-12-20T05:27:04;101311.88;;;7.27;79.01
9110;BME280;4590;51.462;6.692;2023-12-20T05:29:29;101300.13;;;7.27;78.58
9110;BME280;4590;51.462;6.692;2023-12-20T05:31:55;101292.47;;;7.29;78.56
9110;BME280;4590;51.462;6.692;2023-12-20T05:34:20;101298.75;;;7.29;79.09
9110;BME280;4590;51.462;6.692;2023-12-20T05:36:45;101290.53;;;7.29;78.61
9110;BME280;4590;51.462;6.692;2023-12-20T05:39:11;101291.94;;;7.32;78.62
9110;BME280;4590;51.462;6.692;2023-12-20T05:41:36;101284.25;;;7.34;78.85
9110;BME280;4590;51.462;6.692;2023-12-20T05:44:01;101297.69;;;7.35;78.83
9110;BME280;4590;51.462;6.692;2023-12-20T05:46:26;101292.75;;;7.37;78.47
9110;BME280;4590;51.462;6.692;2023-12-20T05:48:52;101290.84;;;7.38;78.82
9110;BME280;4590;51.462;6.692;2023-12-20T05:51:18;101287.84;;;7.39;78.49
9110;BME280;4590;51.462;6.692;2023-12-20T05:53:44;101286.72;;;7.40;78.71
9110;BME280;4590;51.462;6.692;2023-12-20T05:56:10;101283.16;;;7.40;78.55
9110;BME280;4590;51.462;6.692;2023-12-20T05:58:35;101291.09;;;7.42;78.55
9110;BME280;4590;51.462;6.692;2023-12-20T06:01:01;101287.84;;;7.39;78.80
9110;BME280;4590;51.462;6.692;2023-12-20T06:03:28;101277.69;;;7.40;78.67
9110;BME280;4590;51.462;6.692;2023-12-20T06:05:53;101293.31;;;7.39;78.74
9110;BME280;4590;51.462;6.692;2023-12-20T06:08:19;101312.47;;;7.45;78.73
9110;BME280;4590;51.462;6.692;2023-12-20T06:10:44;101297.69;;;7.46;78.85
9110;BME280;4590;51.462;6.692;2023-12-20T06:13:09;101308.09;;;7.49;78.90
9110;BME280;4590;51.462;6.692;2023-12-20T06:15:35;101308.09;;;7.49;78.55
9110;BME280;4590;51.462;6.692;2023-12-20T06:18:00;101305.09;;;7.50;78.54
9110;BME280;4590;51.462;6.692;2023-12-20T06:20:26;101306.75;;;7.51;78.57
9110;BME280;4590;51.462;6.692;2023-12-20T06:22:51;101306.19;;;7.49;78.98
9110;BME280;4590;51.462;6.692;2023-12-20T06:25:16;101305.38;;;7.49;78.82
9110;BME280;4590;51.462;6.692;2023-12-20T06:27:42;101312.22;;;7.51;78.72
9110;BME280;4590;51.462;6.692;2023-12-20T06:30:08;101310.31;;;7.52;78.82
9110;BME280;4590;51.462;6.692;2023-12-20T06:32:36;101307.28;;;7.53;78.91
9110;BME280;4590;51.462;6.692;2023-12-20T06:35:02;101305.06;;;7.40;79.03
9110;BME280;4590;51.462;6.692;2023-12-20T06:37:30;101296.34;;;7.53;78.65
9110;BME280;4590;51.462;6.692;2023-12-20T06:39:55;101287.56;;;7.56;78.69
9110;BME280;4590;51.462;6.692;2023-12-20T06:42:21;101297.41;;;7.47;78.91
9110;BME280;4590;51.462;6.692;2023-12-20T06:44:47;101296.06;;;7.55;78.66
9110;BME280;4590;51.462;6.692;2023-12-20T06:47:12;101308.63;;;7.56;78.89
9110;BME280;4590;51.462;6.692;2023-12-20T06:49:39;101299.63;;;7.60;79.19
9110;BME280;4590;51.462;6.692;2023-12-20T06:52:04;101297.44;;;7.62;78.94
9110;BME280;4590;51.462;6.692;2023-12-20T06:54:29;101300.72;;;7.64;78.52
9110;BME280;4590;51.462;6.692;2023-12-20T06:56:55;101304.56;;;7.68;78.78
9110;BME280;4590;51.462;6.692;2023-12-20T06:59:20;101319.34;;;7.72;78.90
9110;BME280;4590;51.462;6.692;2023-12-20T07:01:48;101298.25;;;7.73;78.57
9110;BME280;4590;51.462;6.692;2023-12-20T07:04:14;101302.63;;;7.79;78.39
9110;BME280;4590;51.462;6.692;2023-12-20T07:06:39;101310.59;;;7.81;78.24
9110;BME280;4590;51.462;6.692;2023-12-20T07:09:17;101300.72;;;7.80;78.46
9110;BME280;4590;51.462;6.692;2023-12-20T07:11:42;101291.41;;;7.86;78.30
9110;BME280;4590;51.462;6.692;2023-12-20T07:14:07;101291.41;;;7.86;78.44
9110;BME280;4590;51.462;6.692;2023-12-20T07:16:33;101291.41;;;7.86;78.18
9110;BME280;4590;51.462;6.692;2023-12-20T07:19:00;101296.31;;;7.89;78.32
9110;BME280;4590;51.462;6.692;2023-12-20T07:21:25;101292.50;;;7.90;78.54
9110;BME280;4590;51.462;6.692;2023-12-20T07:23:50;101283.19;;;7.91;78.16
9110;BME280;4590;51.462;6.692;2023-12-20T07:26:15;101289.47;;;7.91;78.19
9110;BME280;4590;51.462;6.692;2023-12-20T07:28:41;101299.06;;;7.94;78.16
9110;BME280;4590;51.462;6.692;2023-12-20T07:31:06;101288.66;;;7.96;78.22
9110;BME280;4590;51.462;6.692;2023-12-20T07:33:31;101301.81;;;7.94;78.04
9110;BME280;4590;51.462;6.692;2023-12-20T07:35:56;101288.94;;;7.94;78.04
9110;BME280;4590;51.462;6.692;2023-12-20T07:38:22;101297.72;;;7.96;77.98
9110;BME280;4590;51.462;6.692;2023-12-20T07:40:47;101292.78;;;7.98;78.26
9110;BME280;4590;51.462;6.692;2023-12-20T07:43:12;101296.06;;;8.00;77.73
9110;BME280;4590;51.462;6.692;2023-12-20T07:45:37;101297.72;;;8.01;78.18
9110;BME280;4590;51.462;6.692;2023-12-20T07:48:03;101301.53;;;8.00;78.23
9110;BME280;4590;51.462;6.692;2023-12-20T07:50:29;101296.06;;;8.00;77.67
9110;BME280;4590;51.462;6.692;2023-12-20T07:52:54;101306.75;;;8.02;77.62
9110;BME280;4590;51.462;6.692;2023-12-20T07:55:19;101313.34;;;8.01;78.08
9110;BME280;4590;51.462;6.692;2023-12-20T07:57:45;101307.56;;;8.02;77.85
9110;BME280;4590;51.462;6.692;2023-12-20T08:00:10;101307.00;;;8.05;77.69
9110;BME280;4590;51.462;6.692;2023-12-20T08:02:36;101300.44;;;8.06;77.63
9110;BME280;4590;51.462;6.692;2023-12-20T08:05:01;101299.88;;;8.09;77.58
9110;BME280;4590;51.462;6.692;2023-12-20T08:07:26;101297.41;;;8.08;77.53
9110;BME280;4590;51.462;6.692;2023-12-20T08:09:51;101294.94;;;8.12;77.41
9110;BME280;4590;51.462;6.692;2023-12-20T08:12:18;101296.59;;;8.13;77.24
9110;BME280;4590;51.462;6.692;2023-12-20T08:14:43;101297.13;;;8.15;77.34
9110;BME280;4590;51.462;6.692;2023-12-20T08:17:08;101296.03;;;8.16;77.53
9110;BME280;4590;51.462;6.692;2023-12-20T08:19:34;101304.00;;;8.17;77.14
9110;BME280;4590;51.462;6.692;2023-12-20T08:21:59;101306.72;;;8.17;77.00
9110;BME280;4590;51.462;6.692;2023-12-20T08:24:24;101289.19;;;8.18;76.99
9110;BME280;4590;51.462;6.692;2023-12-20T08:26:49;101301.25;;;8.17;77.36
9110;BME280;4590;51.462;6.692;2023-12-20T08:29:15;101304.53;;;8.14;77.34
9110;BME280;4590;51.462;6.692;2023-12-20T08:31:40;101307.84;;;8.16;76.86
9110;BME280;4590;51.462;6.692;2023-12-20T08:34:05;101314.13;;;8.17;76.77
9110;BME280;4590;51.462;6.692;2023-12-20T08:36:30;101302.91;;;8.18;76.91
9110;BME280;4590;51.462;6.692;2023-12-20T08:38:56;101318.53;;;8.18;77.01
9110;BME280;4590;51.462;6.692;2023-12-20T08:41:21;101331.94;;;8.19;76.81
9110;BME280;4590;51.462;6.692;2023-12-20T08:43:46;101307.84;;;8.16;76.73
9110;BME280;4590;51.462;6.692;2023-12-20T08:46:14;101316.59;;;8.18;76.89
9110;BME280;4590;51.462;6.692;2023-12-20T08:48:39;101307.25;;;8.19;76.33
9110;BME280;4590;51.462;6.692;2023-12-20T08:51:04;101309.47;;;8.17;76.85
9110;BME280;4590;51.462;6.692;2023-12-20T08:53:32;101305.34;;;8.20;76.52
9110;BME280;4590;51.462;6.692;2023-12-20T08:55:58;101307.00;;;8.05;75.88
9110;BME280;4590;51.462;6.692;2023-12-20T08:58:26;101313.88;;;8.18;76.49
9110;BME280;4590;51.462;6.692;2023-12-20T09:00:51;101309.75;;;8.16;76.72
9110;BME280;4590;51.462;6.692;2023-12-20T09:03:16;101297.09;;;8.20;76.70
9110;BME280;4590;51.462;6.692;2023-12-20T09:05:42;101288.34;;;8.23;76.54
9110;BME280;4590;51.462;6.692;2023-12-20T09:08:07;101303.69;;;8.24;76.16
9110;BME280;4590;51.462;6.692;2023-12-20T09:10:35;101291.34;;;8.21;76.50
9110;BME280;4590;51.462;6.692;2023-12-20T09:13:00;101289.44;;;8.22;76.08
9110;BME280;4590;51.462;6.692;2023-12-20T09:15:26;101284.50;;;8.24;76.21
9110;BME280;4590;51.462;6.692;2023-12-20T09:17:52;101294.94;;;8.12;75.62
9110;BME280;4590;51.462;6.692;2023-12-20T09:20:17;101289.44;;;8.22;76.34
9110;BME280;4590;51.462;6.692;2023-12-20T09:22:43;101282.34;;;8.16;76.22
9110;BME280;4590;51.462;6.692;2023-12-20T09:25:09;101278.78;;;8.15;76.06
9110;BME280;4590;51.462;6.692;2023-12-20T09:27:35;101277.41;;;8.18;76.05
9110;BME280;4590;51.462;6.692;2023-12-20T09:30:00;101279.03;;;8.19;76.15
9110;BME280;4590;51.462;6.692;2023-12-20T09:32:26;101280.38;;;8.21;76.45
9110;BME280;4590;51.462;6.692;2023-12-20T09:34:51;101282.59;;;8.19;76.01
9110;BME280;4590;51.462;6.692;2023-12-20T09:37:16;101288.06;;;8.24;76.17
9110;BME280;4590;51.462;6.692;2023-12-20T09:39:41;101287.78;;;8.26;76.04
9110;BME280;4590;51.462;6.692;2023-12-20T09:42:07;101287.53;;;8.22;76.44
9110;BME280;4590;51.462;6.692;2023-12-20T09:44:33;101292.44;;;8.25;76.20
9110;BME280;4590;51.462;6.692;2023-12-20T09:47:02;101298.75;;;8.21;76.13
9110;BME280;4590;51.462;6.692;2023-12-20T09:49:29;101292.72;;;8.24;76.27
9110;BME280;4590;51.462;6.692;2023-12-20T09:51:55;101294.38;;;8.30;75.94
9110;BME280;4590;51.462;6.692;2023-12-20T09:54:22;101290.81;;;8.29;75.93
9110;BME280;4590;51.462;6.692;2023-12-20T09:56:48;101290.00;;;8.14;75.39
9110;BME280;4590;51.462;6.692;2023-12-20T09:59:13;101294.66;;;8.28;75.88
9110;BME280;4590;51.462;6.692;2023-12-20T10:01:42;101288.59;;;8.31;75.90
9110;BME280;4590;51.462;6.692;2023-12-20T10:04:09;101289.72;;;8.35;76.14
9110;BME280;4590;51.462;6.692;2023-12-20T10:06:41;101293.81;;;8.38;76.12
9110;BME280;4590;51.462;6.692;2023-12-20T10:09:08;101291.06;;;8.43;75.95
9110;BME280;4590;51.462;6.692;2023-12-20T10:11:35;101290.53;;;8.46;75.69
9110;BME280;4590;51.462;6.692;2023-12-20T10:14:02;101295.19;;;8.46;76.13
9110;BME280;4590;51.462;6.692;2023-12-20T10:16:28;101283.38;;;8.45;76.09
9110;BME280;4590;51.462;6.692;2023-12-20T10:18:54;101287.78;;;8.46;75.86
9110;BME280;4590;51.462;6.692;2023-12-20T10:21:19;101279.00;;;8.49;76.03
9110;BME280;4590;51.462;6.692;2023-12-20T10:36:41;101261.34;;;8.70;75.73
9110;BME280;4590;51.462;6.692;2023-12-20T10:39:08;101256.94;;;8.69;75.92
9110;BME280;4590;51.462;6.692;2023-12-20T11:53:13;101227.22;;;8.92;74.37
9110;BME280;4590;51.462;6.692;2023-12-20T11:55:38;101207.09;;;9.01;74.86
9110;BME280;4590;51.462;6.692;2023-12-20T11:58:03;101213.97;;;9.04;75.37
9110;BME280;4590;51.462;6.692;2023-12-20T12:00:29;101200.78;;;9.06;75.10
9110;BME280;4590;51.462;6.692;2023-12-20T12:02:56;101202.41;;;9.07;75.21
9110;BME280;4590;51.462;6.692;2023-12-20T12:41:34;101175.28;;;9.34;74.08
9110;BME280;4590;51.462;6.692;2023-12-20T12:43:59;101175.28;;;9.34;74.00
9110;BME280;4590;51.462;6.692;2023-12-20T12:46:24;101161.31;;;9.31;74.24
9110;BME280;4590;51.462;6.692;2023-12-20T12:48:49;101167.34;;;9.33;73.87
9110;BME280;4590;51.462;6.692;2023-12-20T12:51:15;101168.16;;;9.33;73.98
9110;BME280;4590;51.462;6.692;2023-12-20T12:53:41;101178.31;;;9.33;74.28
9110;BME280;4590;51.462;6.692;2023-12-20T13:25:19;101119.22;;;9.11;74.85
9110;BME280;4590;51.462;6.692;2023-12-20T13:27:46;101128.28;;;9.12;74.77
9110;BME280;4590;51.462;6.692;2023-12-20T13:30:11;101109.91;;;9.07;75.03
9110;BME280;4590;51.462;6.692;2023-12-20T13:33:00;101117.34;;;9.02;75.12
9110;BME280;4590;51.462;6.692;2023-12-20T13:35:25;101114.03;;;9.05;75.27
9110;BME280;4590;51.462;6.692;2023-12-20T13:37:50;101108.00;;;9.03;75.41
9110;BME280;4590;51.462;6.692;2023-12-20T13:40:36;101115.19;;;8.99;75.50
9110;BME280;4590;51.462;6.692;2023-12-20T13:43:01;101119.00;;;9.03;75.54
9110;BME280;4590;51.462;6.692;2023-12-20T13:45:30;101117.88;;;9.04;75.67
9110;BME280;4590;51.462;6.692;2023-12-20T13:48:02;101104.72;;;9.01;75.76
9110;BME280;4590;51.462;6.692;2023-12-20T13:50:27;101096.75;;;9.04;75.96
9110;BME280;4590;51.462;6.692;2023-12-20T13:52:53;101101.41;;;9.04;75.88
9110;BME280;4590;51.462;6.692;2023-12-20T15:58:42;101070.56;;;9.17;76.47
9110;BME280;4590;51.462;6.692;2023-12-20T16:01:07;101060.38;;;9.18;76.37
9110;BME280;4590;51.462;6.692;2023-12-20T16:03:32;101053.25;;;9.17;76.28
9110;BME280;4590;51.462;6.692;2023-12-20T16:05:58;101054.09;;;9.17;76.18
9110;BME280;4590;51.462;6.692;2023-12-20T16:08:26;101046.94;;;9.16;76.77
9110;BME280;4590;51.462;6.692;2023-12-20T16:10:52;101035.69;;;9.18;76.39
9110;BME280;4590;51.462;6.692;2023-12-20T16:13:17;101043.09;;;9.17;76.27
9110;BME280;4590;51.462;6.692;2023-12-20T16:15:42;101042.81;;;9.19;76.55
9110;BME280;4590;51.462;6.692;2023-12-20T16:18:09;101035.41;;;9.19;76.33
9110;BME280;4590;51.462;6.692;2023-12-20T16:20:37;101033.19;;;9.21;76.28
9110;BME280;4590;51.462;6.692;2023-12-20T16:23:02;101032.66;;;9.19;76.61
9110;BME280;4590;51.462;6.692;2023-12-20T16:25:27;101035.41;;;9.19;76.70
9110;BME280;4590;51.462;6.692;2023-12-20T16:27:52;101029.09;;;9.19;76.23
9110;BME280;4590;51.462;6.692;2023-12-20T16:30:18;101038.97;;;9.20;76.69
9110;BME280;4590;51.462;6.692;2023-12-20T16:32:43;101022.25;;;9.16;76.56
9110;BME280;4590;51.462;6.692;2023-12-20T16:35:08;101025.22;;;9.20;76.34
9110;BME280;4590;51.462;6.692;2023-12-20T16:37:34;101021.97;;;9.18;76.15
9110;BME280;4590;51.462;6.692;2023-12-20T16:40:06;101019.75;;;9.20;76.34
9110;BME280;4590;51.462;6.692;2023-12-20T16:42:32;101023.56;;;9.24;76.13
9110;BME280;4590;51.462;6.692;2023-12-20T16:44:57;101020.00;;;9.23;75.97
9110;BME280;4590;51.462;6.692;2023-12-20T16:47:22;101016.13;;;9.24;76.31
9110;BME280;4590;51.462;6.692;2023-12-20T16:49:48;101009.00;;;9.23;76.10
9110;BME280;4590;51.462;6.692;2023-12-20T16:52:13;100996.38;;;9.22;76.00
9110;BME280;4590;51.462;6.692;2023-12-20T16:54:38;100992.81;;;9.22;76.26
9110;BME280;4590;51.462;6.692;2023-12-20T16:57:04;101003.28;;;9.20;76.26
9110;BME280;4590;51.462;6.692;2023-12-20T16:59:29;100991.72;;;9.23;76.11
9110;BME280;4590;51.462;6.692;2023-12-20T17:01:54;101004.91;;;9.21;76.22
9110;BME280;4590;51.462;6.692;2023-12-20T17:04:20;101007.38;;;9.22;76.49
9110;BME280;4590;51.462;6.692;2023-12-20T17:06:48;101011.75;;;9.23;76.27
9110;BME280;4590;51.462;6.692;2023-12-20T17:09:14;100991.47;;;9.19;76.42
9110;BME280;4590;51.462;6.692;2023-12-20T17:11:41;100988.47;;;9.15;76.63
9110;BME280;4590;51.462;6.692;2023-12-20T17:14:06;100990.94;;;9.17;76.44
9110;BME280;4590;51.462;6.692;2023-12-20T17:16:34;100967.28;;;9.21;76.48
9110;BME280;4590;51.462;6.692;2023-12-20T17:18:59;100973.88;;;9.20;76.64
9110;BME280;4590;51.462;6.692;2023-12-20T17:21:26;100968.09;;;9.22;76.61
9110;BME280;4590;51.462;6.692;2023-12-20T17:23:51;100963.72;;;9.21;76.04
9110;BME280;4590;51.462;6.692;2023-12-20T17:26:17;100952.44;;;9.22;76.41
9110;BME280;4590;51.462;6.692;2023-12-20T17:28:42;100960.69;;;9.22;76.60
9110;BME280;4590;51.462;6.692;2023-12-20T17:31:07;100958.75;;;9.23;76.29
9110;BME280;4590;51.462;6.692;2023-12-20T17:33:33;100957.66;;;9.24;76.47
9110;BME280;4590;51.462;6.692;2023-12-20T17:35:58;100956.56;;;9.25;76.31
9110;BME280;4590;51.462;6.692;2023-12-20T17:38:24;100937.91;;;9.22;76.58
9110;BME280;4590;51.462;6.692;2023-12-20T17:40:49;100942.59;;;9.21;76.73
9110;BME280;4590;51.462;6.692;2023-12-20T17:43:15;100957.94;;;9.22;76.69
9110;BME280;4590;51.462;6.692;2023-12-20T17:45:40;100946.69;;;9.24;76.49
9110;BME280;4590;51.462;6.692;2023-12-20T17:48:06;100942.53;;;9.26;76.72